アナディリ の空港の天気 - METARとTAF

アナディリ・ウゴルヌイ空港 ( UHMA / DYR ) - ロシア アナディリ
飛行場実況気象(Metar)
観測時間04/25 19:00 +11 (04/25 08:00 UTC)
風向・風速不定 1m/s
視程10km以上
天気現象
なし
気温-5℃
湿度68%
気圧1010hPa
METARUHMA 250800Z VRB01MPS CAVOK M05/M10 Q1010 R88/CLRD60 NOSIG RMK QFE754/1005
過去の天気等 Google飛行場航空写真 Wunderground天気予報

過去48時間のMETAR

飛行場予報(TAF)
発表時間: 4/26 00:47 +11 (4/25 13:47 UTC)
予報対象時間: 26日2時 +11 ~ 27日2時 +11
風向・風速北北東 8m/s
視程10km以上
全天の4割程度の雲 雲底高度 1,070m
26日2時 +11 ~ 27日2時 +11 に一時的に
風向・風速東北東 11m/s
全天の4割程度の雲 雲底高度 300m
全天の8割程度の雲 雲底高度 1,010m
TAF UHMA 251347Z 2515/2615 02008MPS 9999 SCT035
TEMPO 2515/2615 07011MPS SCT010 BKN033